Contact Us:
Email: info@sawbill.com
Phone: (218)663-7150
Fax: (218)663-7980
Mail: 4620 Sawbill Trail
Box 2129
Tofte, MN 55615


Powered by
Movable Type 3.15
 
Sawbill Weather History Archives: November 2016
Current Sawbill Weather History | « October 2016 | December 2016 »


Date

High
Temperature

Low
Temperature

Barometric
Pressure

Relative
Humidity 7AM

9 AM
Temperature

Moisture

Snow

11/30/16 36 25 29.80 79% 25 Trace Trace
11/29/16 37 34 29.74 95% 34 .30" Trace
11/28/16 39 35 29.50 98% 36 1.25"
11/27/16 37 33 29.66 98% 35 0
11/26/16 33 30 30.13 98% 33 0
11/25/16 34 29 30.10 87% 29 Trace Trace
11/24/16 34 31 30.13 87% 32 .07" .5"
11/23/16 34 30 30.10 86% 30 .15" 1.5"
11/22/16 31 20 30.10 88% 30 .14" 1.75"
11/21/16 27 12 30.18 78% 20 0
11/20/16 23 10 30.20 71% 16 0
11/19/16 19 16 30.20 63% 19 Trace Trace
11/18/16 31 16 30.08 65% 16 1.07" 7.5"
11/17/16 42 31 29.91 87% 32 .1" .5"
11/16/16 41 34 29.88 88% 35 .9"
11/15/16 42 38 29.92 93% 38 .7"
11/14/16 43 33 29.95 87% 34 0
11/13/16 57 32 29.90 69% 40 0
11/12/16 42 26 30.10 68% 341 0
11/11/16 39 26 30.08 51% 36 0
11/10/16 56 30 30.30 62% 30 0
11/9/16 56 34 29.90 57% 45 0
11/8/16 50 32 30.20 79% 34 0
11/7/16 58 41 30.20 69% 40 0
11/6/16 65 46 30.08 60% 48 0
11/5/16 62 35 30.17 84% 45 0
11/4/16 58 34 30.19 87% 38 0
11/3/16 42 34 30.19 96% 39 0
11/2/16 52 33 30.15 94% 41 .15"
11/1/16 45 32 30.80 83% 33 0
 


Home I Trip Planning I Rentals and Outfitting I Reservations I Campgrounds I Sawbill Store I Sawbill News I Contact

© 1997 - 2017, Sawbill Canoe Outfitters, Inc. I Privacy Policy